createdAt,value
2019-06-08T00:02:09.881Z,58.20
2019-06-08T00:04:37.551Z,57.30
2019-06-08T00:07:05.189Z,57.60
2019-06-08T00:09:32.853Z,57.80
2019-06-08T00:12:00.509Z,57.70
2019-06-08T00:14:28.118Z,57.90
2019-06-08T00:16:55.791Z,58.10
2019-06-08T00:19:23.698Z,58.20
2019-06-08T00:21:51.534Z,58.20
2019-06-08T00:24:19.883Z,57.90
2019-06-08T00:26:47.811Z,58.10
2019-06-08T00:29:16.289Z,58.20
2019-06-08T00:31:44.002Z,57.80
2019-06-08T00:34:11.644Z,57.90
2019-06-08T00:36:39.296Z,57.80
2019-06-08T00:39:09.021Z,58.00
2019-06-08T00:41:36.669Z,57.60
2019-06-08T00:44:04.501Z,57.80
2019-06-08T00:46:32.217Z,58.00
2019-06-08T00:48:59.825Z,57.80
2019-06-08T00:51:27.602Z,58.20
2019-06-08T00:54:02.730Z,58.40
2019-06-08T00:56:30.377Z,58.70
2019-06-08T00:58:57.989Z,58.10
2019-06-08T01:01:28.021Z,58.10
2019-06-08T01:03:54.996Z,58.20
2019-06-08T01:06:23.014Z,58.40
2019-06-08T01:08:50.785Z,58.80
2019-06-08T01:11:22.448Z,58.80
2019-06-08T01:13:50.190Z,59.00
2019-06-08T01:16:18.834Z,58.80
2019-06-08T01:18:46.693Z,59.10
2019-06-08T01:21:14.309Z,59.30
2019-06-08T01:23:41.953Z,59.60
2019-06-08T01:26:09.745Z,59.60
2019-06-08T01:28:37.417Z,59.60
2019-06-08T01:31:05.018Z,59.70
2019-06-08T01:33:32.695Z,60.00
2019-06-08T01:36:00.264Z,60.10
2019-06-08T01:38:29.091Z,60.40
2019-06-08T01:40:57.126Z,60.10
2019-06-08T01:43:25.813Z,60.80
2019-06-08T01:45:53.593Z,60.80
2019-06-08T01:48:22.281Z,61.20
2019-06-08T01:50:49.961Z,61.30
2019-06-08T01:53:17.683Z,62.00
2019-06-08T01:55:45.261Z,61.90
2019-06-08T01:58:12.850Z,62.90
2019-06-08T02:00:41.653Z,63.30
2019-06-08T02:03:09.994Z,62.40
2019-06-08T02:05:39.840Z,62.90
2019-06-08T02:08:07.625Z,61.80
2019-06-08T02:10:35.452Z,62.80
2019-06-08T02:13:03.178Z,62.30
2019-06-08T02:15:32.018Z,63.00
2019-06-08T02:18:00.104Z,62.90
2019-06-08T02:20:28.719Z,61.60
2019-06-08T02:22:56.544Z,61.90
2019-06-08T02:25:27.282Z,62.20
2019-06-08T02:27:55.369Z,62.70
2019-06-08T02:30:24.988Z,63.70
2019-06-08T02:32:52.590Z,64.70
2019-06-08T02:35:39.626Z,63.10
2019-06-08T02:38:07.382Z,63.20
2019-06-08T02:40:36.628Z,61.50
2019-06-08T02:43:04.566Z,61.00
2019-06-08T02:45:34.045Z,59.40
2019-06-08T02:48:01.591Z,58.40
2019-06-08T02:50:51.830Z,56.30
2019-06-08T02:53:19.573Z,57.40
2019-06-08T02:55:49.705Z,58.00
2019-06-08T02:58:18.363Z,58.70
2019-06-08T03:00:47.714Z,58.90
2019-06-08T03:03:15.407Z,59.20
2019-06-08T03:05:43.217Z,58.30
2019-06-08T03:08:11.160Z,58.70
2019-06-08T03:10:41.337Z,59.40
2019-06-08T03:13:10.008Z,60.00
2019-06-08T03:15:57.054Z,60.00
2019-06-08T03:18:24.662Z,59.70
2019-06-08T03:20:52.245Z,60.20
2019-06-08T03:23:19.997Z,60.30
2019-06-08T03:25:53.179Z,59.80
2019-06-08T03:28:17.073Z,59.50
2019-06-08T03:30:53.261Z,60.20
2019-06-08T03:33:14.073Z,59.90
2019-06-08T03:35:52.706Z,59.70
2019-06-08T03:38:11.208Z,59.40
2019-06-08T03:40:40.538Z,59.70
2019-06-08T03:43:08.404Z,59.70
2019-06-08T03:45:36.402Z,59.30
2019-06-08T03:48:04.142Z,59.00
2019-06-08T03:50:31.757Z,59.60
2019-06-08T03:53:00.703Z,59.70
2019-06-08T03:55:28.361Z,59.40
2019-06-08T03:57:55.949Z,60.10
2019-06-08T04:00:23.567Z,61.30
2019-06-08T04:02:52.087Z,61.90
2019-06-08T04:05:19.681Z,61.80
2019-06-08T04:07:47.289Z,62.20
2019-06-08T04:10:15.553Z,61.60
2019-06-08T04:12:44.218Z,60.50
2019-06-08T04:15:12.619Z,62.50
2019-06-08T04:17:42.056Z,61.10
2019-06-08T04:20:11.875Z,60.30
2019-06-08T04:22:44.700Z,59.40
2019-06-08T04:25:13.101Z,59.70
2019-06-08T04:27:42.199Z,59.80
2019-06-08T04:30:11.080Z,59.90
2019-06-08T04:32:40.530Z,60.10
2019-06-08T04:35:08.958Z,59.70
2019-06-08T04:37:38.178Z,60.90
2019-06-08T04:40:08.274Z,61.20
2019-06-08T04:42:35.894Z,61.50
2019-06-08T04:45:04.701Z,62.30
2019-06-08T04:47:32.310Z,62.10
2019-06-08T04:49:59.910Z,63.00
2019-06-08T04:52:27.541Z,64.10
2019-06-08T04:54:55.193Z,62.20
2019-06-08T04:57:22.759Z,61.20
2019-06-08T05:00:12.716Z,60.50
2019-06-08T05:02:41.489Z,62.70
2019-06-08T05:05:09.205Z,63.40
2019-06-08T05:07:36.851Z,62.50
2019-06-08T05:10:05.335Z,60.90
2019-06-08T05:12:32.938Z,63.30
2019-06-08T05:15:00.515Z,63.80
2019-06-08T05:17:28.131Z,62.20
2019-06-08T05:19:55.723Z,62.40
2019-06-08T05:22:23.350Z,63.50
2019-06-08T05:24:50.962Z,64.60
2019-06-08T05:27:18.734Z,64.90
2019-06-08T05:29:47.247Z,64.90
2019-06-08T05:32:14.905Z,65.40
2019-06-08T05:34:43.417Z,65.00
2019-06-08T05:37:11.160Z,65.60
2019-06-08T05:39:50.822Z,66.90
2019-06-08T05:42:18.480Z,66.00
2019-06-08T05:44:46.139Z,64.30
2019-06-08T05:47:13.762Z,64.40
2019-06-08T05:49:41.659Z,65.00
2019-06-08T05:52:09.438Z,64.60
2019-06-08T05:54:37.069Z,65.70
2019-06-08T05:57:04.678Z,66.10
2019-06-08T05:59:32.281Z,66.20
2019-06-08T06:01:59.926Z,66.10
2019-06-08T06:04:27.524Z,65.60
2019-06-08T06:06:55.206Z,66.60
2019-06-08T06:09:22.813Z,67.30
2019-06-08T06:11:51.170Z,67.60
2019-06-08T06:14:18.934Z,65.40
2019-06-08T06:16:46.991Z,66.30
2019-06-08T06:19:14.678Z,66.00
2019-06-08T06:21:43.036Z,64.20
2019-06-08T06:24:10.886Z,64.20
2019-06-08T06:26:43.220Z,63.90
2019-06-08T06:29:11.021Z,63.80
2019-06-08T06:31:38.698Z,64.00
2019-06-08T06:34:06.285Z,63.90
2019-06-08T06:36:33.910Z,64.00
2019-06-08T06:39:01.517Z,62.70
2019-06-08T06:41:29.178Z,63.30
2019-06-08T06:43:56.787Z,64.10
2019-06-08T06:46:24.444Z,63.60
2019-06-08T06:48:52.500Z,64.00
2019-06-08T06:51:26.272Z,63.50
2019-06-08T06:53:50.856Z,63.20
2019-06-08T06:56:18.505Z,64.40
2019-06-08T06:58:47.245Z,64.90
2019-06-08T07:01:15.058Z,65.90
2019-06-08T07:03:44.213Z,66.60
2019-06-08T07:06:11.958Z,64.90
2019-06-08T07:08:42.006Z,61.10
2019-06-08T07:11:09.166Z,59.40
2019-06-08T07:13:37.093Z,57.80
2019-06-08T07:16:18.114Z,57.10
2019-06-08T07:18:34.204Z,57.10
2019-06-08T07:21:01.858Z,56.60
2019-06-08T07:23:29.475Z,57.70
2019-06-08T07:25:57.209Z,57.80
2019-06-08T07:28:24.794Z,56.90
2019-06-08T07:30:52.805Z,56.90
2019-06-08T07:33:20.584Z,55.00
2019-06-08T07:35:48.730Z,55.40
2019-06-08T07:38:18.675Z,56.20
2019-06-08T07:40:47.224Z,55.40
2019-06-08T07:43:15.782Z,56.40
2019-06-08T07:45:43.490Z,57.50
2019-06-08T07:48:11.358Z,56.20
2019-06-08T07:50:38.969Z,57.10
2019-06-08T07:53:07.761Z,57.60
2019-06-08T07:55:35.415Z,57.40
2019-06-08T07:58:03.084Z,54.70
2019-06-08T08:00:30.775Z,56.40
2019-06-08T08:02:58.404Z,57.30
2019-06-08T08:05:25.994Z,57.20
2019-06-08T08:07:54.740Z,55.60
2019-06-08T08:10:22.661Z,54.30
2019-06-08T08:12:50.905Z,53.10
2019-06-08T08:15:19.587Z,52.50
2019-06-08T08:17:47.165Z,52.70
2019-06-08T08:20:14.861Z,50.70
2019-06-08T08:22:42.561Z,50.90
2019-06-08T08:25:10.789Z,52.00
2019-06-08T08:27:41.939Z,49.40
2019-06-08T08:30:17.282Z,49.50
2019-06-08T08:32:44.877Z,47.20
2019-06-08T08:35:12.668Z,47.30
2019-06-08T08:37:40.304Z,46.50
2019-06-08T08:40:08.318Z,45.00
2019-06-08T08:42:38.324Z,45.70
2019-06-08T08:45:08.680Z,46.20
2019-06-08T08:48:10.321Z,46.10
2019-06-08T08:50:23.977Z,47.00
2019-06-08T08:52:52.364Z,46.80
2019-06-08T08:55:20.608Z,44.90
2019-06-08T08:57:48.617Z,45.80
2019-06-08T09:00:18.109Z,44.30
2019-06-08T09:02:46.123Z,45.20
2019-06-08T09:05:13.697Z,45.10
2019-06-08T09:07:41.399Z,46.00
2019-06-08T09:10:11.265Z,45.60
2019-06-08T09:12:40.208Z,44.50
2019-06-08T09:15:08.557Z,44.20
2019-06-08T09:17:38.601Z,45.90
2019-06-08T09:20:11.119Z,44.80
2019-06-08T09:22:50.250Z,45.00
2019-06-08T09:25:05.021Z,46.60
2019-06-08T09:27:32.706Z,46.40
2019-06-08T09:30:02.933Z,44.90
2019-06-08T09:32:29.750Z,46.60
2019-06-08T09:35:01.508Z,48.10
2019-06-08T09:37:28.792Z,48.00
2019-06-08T09:39:58.503Z,45.80
2019-06-08T09:42:25.708Z,45.10
2019-06-08T09:44:55.123Z,46.80
2019-06-08T09:47:22.865Z,42.10
2019-06-08T09:49:50.469Z,44.20
2019-06-08T09:52:19.522Z,44.00
2019-06-08T09:54:48.199Z,44.10
2019-06-08T09:57:18.545Z,44.30
2019-06-08T09:59:48.078Z,44.80
2019-06-08T10:02:15.137Z,41.20
2019-06-08T10:04:42.762Z,42.30
2019-06-08T10:07:10.387Z,41.20
2019-06-08T10:09:38.213Z,39.80
2019-06-08T10:12:07.313Z,38.40
2019-06-08T10:14:37.780Z,37.10
2019-06-08T10:17:06.672Z,35.30
2019-06-08T10:19:34.119Z,35.90
2019-06-08T10:22:02.924Z,35.30
2019-06-08T10:24:30.690Z,36.80
2019-06-08T10:26:59.379Z,35.90
2019-06-08T10:29:27.153Z,36.00
2019-06-08T10:31:55.214Z,35.00
2019-06-08T10:34:22.866Z,36.30
2019-06-08T10:36:50.446Z,35.70
2019-06-08T10:39:18.141Z,31.80
2019-06-08T10:41:48.810Z,32.50
2019-06-08T10:44:15.342Z,31.80
2019-06-08T10:46:43.151Z,30.50
2019-06-08T10:49:14.286Z,34.00
2019-06-08T10:51:41.058Z,27.10
2019-06-08T10:54:10.976Z,27.60
2019-06-08T10:56:38.596Z,27.20
2019-06-08T10:59:09.944Z,27.30
2019-06-08T11:01:38.398Z,28.20
2019-06-08T11:04:07.115Z,27.80
2019-06-08T11:06:39.851Z,29.20
2019-06-08T11:09:11.996Z,28.60
2019-06-08T11:11:38.133Z,26.80
2019-06-08T11:14:06.226Z,26.80
2019-06-08T11:16:34.343Z,26.90
2019-06-08T11:19:02.997Z,27.90
2019-06-08T11:21:31.347Z,27.50
2019-06-08T11:24:07.333Z,29.90
2019-06-08T11:26:28.937Z,28.50
2019-06-08T11:28:58.610Z,29.10
2019-06-08T11:31:31.239Z,29.30
2019-06-08T11:33:58.916Z,28.40
2019-06-08T11:36:28.199Z,29.00
2019-06-08T11:38:58.780Z,31.40
2019-06-08T11:41:27.703Z,31.70
2019-06-08T11:43:59.591Z,31.50
2019-06-08T11:46:24.831Z,32.50
2019-06-08T11:48:52.444Z,33.30
2019-06-08T11:51:20.037Z,32.10
2019-06-08T11:53:51.287Z,31.50
2019-06-08T11:56:18.266Z,31.40
2019-06-08T11:58:48.469Z,28.50
2019-06-08T12:01:18.390Z,28.00
2019-06-08T12:03:48.218Z,27.80
2019-06-08T12:06:15.109Z,29.50
2019-06-08T12:08:42.875Z,32.40
2019-06-08T12:11:16.439Z,31.20
2019-06-08T12:13:39.993Z,31.40
2019-06-08T12:16:09.358Z,30.90
2019-06-08T12:18:40.069Z,31.20
2019-06-08T12:21:08.651Z,28.40
2019-06-08T12:23:35.877Z,30.00
2019-06-08T12:26:06.000Z,30.00
2019-06-08T12:28:38.063Z,30.00
2019-06-08T12:31:09.201Z,29.60
2019-06-08T12:33:34.989Z,29.80
2019-06-08T12:36:08.418Z,29.40
2019-06-08T12:38:34.813Z,31.10
2019-06-08T12:41:02.395Z,31.40
2019-06-08T12:43:30.033Z,30.00
2019-06-08T12:45:58.160Z,30.10
2019-06-08T12:48:25.847Z,30.40
2019-06-08T12:50:53.487Z,31.10
2019-06-08T12:53:23.105Z,31.80
2019-06-08T12:55:50.601Z,32.20
2019-06-08T12:58:21.611Z,32.40
2019-06-08T13:00:48.356Z,32.40
2019-06-08T13:03:16.729Z,32.10
2019-06-08T13:05:44.526Z,32.50
2019-06-08T13:08:13.361Z,32.10
2019-06-08T13:10:41.492Z,31.70
2019-06-08T13:13:09.965Z,32.10
2019-06-08T13:15:38.933Z,32.50
2019-06-08T13:18:08.606Z,33.20
2019-06-08T13:20:38.765Z,32.80
2019-06-08T13:23:08.234Z,34.50
2019-06-08T13:25:40.357Z,34.80
2019-06-08T13:28:04.924Z,33.40
2019-06-08T13:30:32.560Z,33.60
2019-06-08T13:33:00.150Z,33.20
2019-06-08T13:35:30.566Z,32.70
2019-06-08T13:37:57.685Z,33.10
2019-06-08T13:40:26.349Z,33.60
2019-06-08T13:42:54.139Z,33.30
2019-06-08T13:45:23.458Z,33.30
2019-06-08T13:47:58.678Z,32.10
2019-06-08T13:50:26.404Z,33.60
2019-06-08T13:52:54.069Z,32.80
2019-06-08T13:55:44.027Z,34.30
2019-06-08T13:57:51.194Z,32.90
2019-06-08T14:00:23.773Z,33.60
2019-06-08T14:02:52.487Z,33.00
2019-06-08T14:05:30.600Z,31.40
2019-06-08T14:07:59.040Z,33.10
2019-06-08T14:10:38.509Z,31.90
2019-06-08T14:13:06.917Z,30.20
2019-06-08T14:15:34.851Z,31.60
2019-06-08T14:18:03.928Z,31.30
2019-06-08T14:20:34.415Z,31.70
2019-06-08T14:23:01.333Z,31.00
2019-06-08T14:25:31.306Z,31.10
2019-06-08T14:27:58.389Z,31.20
2019-06-08T14:30:31.251Z,32.30
2019-06-08T14:32:57.764Z,32.60
2019-06-08T14:35:25.698Z,31.60
2019-06-08T14:37:54.533Z,31.70
2019-06-08T14:40:23.401Z,32.00
2019-06-08T14:42:51.265Z,31.30
2019-06-08T14:45:19.652Z,32.00
2019-06-08T14:47:48.421Z,30.90
2019-06-08T14:50:18.091Z,29.90
2019-06-08T14:52:47.938Z,30.00
2019-06-08T14:55:15.430Z,29.70
2019-06-08T14:57:43.046Z,30.50
2019-06-08T15:00:12.908Z,32.40
2019-06-08T15:02:40.577Z,31.60
2019-06-08T15:05:08.345Z,31.00
2019-06-08T15:07:35.996Z,31.90
2019-06-08T15:10:04.333Z,31.90
2019-06-08T15:12:32.161Z,31.90
2019-06-08T15:14:59.784Z,32.00
2019-06-08T15:17:28.985Z,32.10
2019-06-08T15:19:58.527Z,32.90
2019-06-08T15:22:28.453Z,31.80
2019-06-08T15:24:57.900Z,32.20
2019-06-08T15:27:26.482Z,32.10
2019-06-08T15:29:54.541Z,32.10
2019-06-08T15:32:22.943Z,32.90
2019-06-08T15:34:50.953Z,31.00
2019-06-08T15:37:18.724Z,31.10
2019-06-08T15:39:48.592Z,31.40
2019-06-08T15:42:17.988Z,30.80
2019-06-08T15:44:47.836Z,30.90
2019-06-08T15:47:15.097Z,31.70
2019-06-08T15:49:42.758Z,31.00
2019-06-08T15:52:10.442Z,31.50
2019-06-08T15:54:40.657Z,32.60
2019-06-08T15:57:07.559Z,32.60
2019-06-08T15:59:40.806Z,33.10
2019-06-08T16:02:04.520Z,32.90
2019-06-08T16:04:32.136Z,33.60
2019-06-08T16:06:59.893Z,33.70
2019-06-08T16:09:28.038Z,32.80
2019-06-08T16:11:55.849Z,32.60
2019-06-08T16:14:24.929Z,32.00
2019-06-08T16:16:52.633Z,32.10
2019-06-08T16:19:20.297Z,33.00
2019-06-08T16:21:47.960Z,32.50
2019-06-08T16:24:15.625Z,32.50
2019-06-08T16:26:52.811Z,32.90
2019-06-08T16:29:12.705Z,33.00
2019-06-08T16:31:40.332Z,33.70
2019-06-08T16:34:08.165Z,33.20
2019-06-08T16:36:35.740Z,33.60
2019-06-08T16:39:05.696Z,32.60
2019-06-08T16:41:33.997Z,32.80
2019-06-08T16:44:01.944Z,32.80
2019-06-08T16:46:30.091Z,32.70
2019-06-08T16:48:57.798Z,31.50
2019-06-08T16:51:25.510Z,31.90
2019-06-08T16:53:53.105Z,32.70
2019-06-08T16:56:20.804Z,33.20
2019-06-08T16:58:48.498Z,33.40
2019-06-08T17:01:16.314Z,33.70
2019-06-08T17:03:43.978Z,34.10
2019-06-08T17:06:11.633Z,34.10
2019-06-08T17:08:42.035Z,34.10
2019-06-08T17:11:08.781Z,34.40
2019-06-08T17:13:36.408Z,33.80
2019-06-08T17:16:04.017Z,34.00
2019-06-08T17:18:32.236Z,34.00
2019-06-08T17:20:59.941Z,33.90
2019-06-08T17:23:27.584Z,34.40
2019-06-08T17:25:55.481Z,34.20
2019-06-08T17:28:23.148Z,34.30
2019-06-08T17:30:50.770Z,34.30
2019-06-08T17:33:18.368Z,34.50
2019-06-08T17:35:45.985Z,34.50
2019-06-08T17:38:13.620Z,34.70
2019-06-08T17:40:42.438Z,35.00
2019-06-08T17:43:10.142Z,35.60
2019-06-08T17:45:38.512Z,35.20
2019-06-08T17:48:06.190Z,35.00
2019-06-08T17:50:34.707Z,35.40
2019-06-08T17:53:02.684Z,35.90
2019-06-08T17:55:30.251Z,35.60
2019-06-08T17:57:57.920Z,35.10
2019-06-08T18:00:25.634Z,35.50
2019-06-08T18:02:53.268Z,35.80
2019-06-08T18:05:21.001Z,36.00
2019-06-08T18:07:49.179Z,35.90
2019-06-08T18:10:17.975Z,35.90
2019-06-08T18:12:46.881Z,35.90
2019-06-08T18:15:17.461Z,36.10
2019-06-08T18:17:45.359Z,36.30
2019-06-08T18:20:13.671Z,36.50
2019-06-08T18:22:43.627Z,36.60
2019-06-08T18:25:10.892Z,36.80
2019-06-08T18:27:40.722Z,37.10
2019-06-08T18:30:11.611Z,36.70
2019-06-08T18:32:40.225Z,37.30
2019-06-08T18:35:07.798Z,37.50
2019-06-08T18:37:38.103Z,37.90
2019-06-08T18:40:07.261Z,37.90
2019-06-08T18:42:35.334Z,38.00
2019-06-08T18:45:04.065Z,38.50
2019-06-08T18:47:32.193Z,38.80
2019-06-08T18:49:59.829Z,39.30
2019-06-08T18:52:28.241Z,37.80
2019-06-08T18:54:57.817Z,37.40
2019-06-08T18:57:27.506Z,39.00
2019-06-08T18:59:57.327Z,39.20
2019-06-08T19:02:25.803Z,39.40
2019-06-08T19:04:53.769Z,39.10
2019-06-08T19:07:21.427Z,39.40
2019-06-08T19:09:49.739Z,39.60
2019-06-08T19:12:19.661Z,40.10
2019-06-08T19:14:47.962Z,39.70
2019-06-08T19:17:17.439Z,40.00
2019-06-08T19:19:48.460Z,40.30
2019-06-08T19:22:14.781Z,40.40
2019-06-08T19:24:44.817Z,40.30
2019-06-08T19:27:11.872Z,44.00
2019-06-08T19:29:42.006Z,45.70
2019-06-08T19:32:09.116Z,47.40
2019-06-08T19:34:39.292Z,47.90
2019-06-08T19:37:07.957Z,48.10
2019-06-08T19:39:35.545Z,48.60
2019-06-08T19:42:03.186Z,49.50
2019-06-08T19:44:30.809Z,50.10
2019-06-08T19:46:58.465Z,50.50
2019-06-08T19:49:28.229Z,51.30
2019-06-08T19:51:57.870Z,52.20
2019-06-08T19:54:24.985Z,51.80
2019-06-08T19:56:54.549Z,51.40
2019-06-08T19:59:22.121Z,51.70
2019-06-08T20:01:55.210Z,50.80
2019-06-08T20:04:19.696Z,50.00
2019-06-08T20:06:48.068Z,50.10
2019-06-08T20:09:17.371Z,50.10
2019-06-08T20:11:49.442Z,50.00
2019-06-08T20:14:14.582Z,50.30
2019-06-08T20:16:42.677Z,50.80
2019-06-08T20:19:11.545Z,51.30
2019-06-08T20:21:39.342Z,51.10
2019-06-08T20:24:10.169Z,52.00
2019-06-08T20:26:37.447Z,52.10
2019-06-08T20:29:13.466Z,52.20
2019-06-08T20:31:34.750Z,52.50
2019-06-08T20:34:02.361Z,53.00
2019-06-08T20:36:30.042Z,52.80
2019-06-08T20:38:58.476Z,53.10
2019-06-08T20:41:27.757Z,53.50
2019-06-08T20:43:57.905Z,53.50
2019-06-08T20:46:25.341Z,53.70
2019-06-08T20:48:53.244Z,53.50
2019-06-08T20:51:21.004Z,53.40
2019-06-08T20:53:50.300Z,53.50
2019-06-08T20:56:18.477Z,53.40
2019-06-08T20:58:48.335Z,53.70
2019-06-08T21:01:17.867Z,53.80
2019-06-08T21:03:46.170Z,54.20
2019-06-08T21:06:14.568Z,54.20
2019-06-08T21:08:42.177Z,54.20
2019-06-08T21:11:09.925Z,53.80
2019-06-08T21:13:37.564Z,53.80
2019-06-08T21:16:07.359Z,53.40
2019-06-08T21:18:34.640Z,53.50
2019-06-08T21:21:02.368Z,53.80
2019-06-08T21:23:32.174Z,53.90
2019-06-08T21:26:00.256Z,54.00
2019-06-08T21:28:29.049Z,54.30
2019-06-08T21:31:01.205Z,55.10
2019-06-08T21:33:26.262Z,55.80
2019-06-08T21:36:03.377Z,55.30
2019-06-08T21:38:24.398Z,55.90
2019-06-08T21:40:59.879Z,56.00
2019-06-08T21:43:24.533Z,55.80
2019-06-08T21:45:53.615Z,56.00
2019-06-08T21:48:21.801Z,55.50
2019-06-08T21:50:51.739Z,55.80
2019-06-08T21:53:19.445Z,55.50
2019-06-08T21:55:47.956Z,55.50
2019-06-08T21:58:17.862Z,55.40
2019-06-08T22:00:47.186Z,55.50
2019-06-08T22:03:17.539Z,55.90
2019-06-08T22:05:47.188Z,56.20
2019-06-08T22:08:17.235Z,56.20
2019-06-08T22:10:47.002Z,56.40
2019-06-08T22:13:14.007Z,56.60
2019-06-08T22:15:41.625Z,56.50
2019-06-08T22:18:09.676Z,56.40
2019-06-08T22:20:38.583Z,56.40
2019-06-08T22:23:07.373Z,56.90
2019-06-08T22:25:35.328Z,57.00
2019-06-08T22:28:03.969Z,56.90
2019-06-08T22:30:39.237Z,56.70
2019-06-08T22:33:01.245Z,57.20
2019-06-08T22:35:28.873Z,57.30
2019-06-08T22:37:57.996Z,57.60
2019-06-08T22:40:30.470Z,57.60
2019-06-08T22:43:00.720Z,57.10
2019-06-08T22:45:28.171Z,57.20
2019-06-08T22:47:58.862Z,57.40
2019-06-08T22:50:27.519Z,57.50
2019-06-08T22:52:57.836Z,57.80
2019-06-08T22:55:27.612Z,58.20
2019-06-08T22:57:55.422Z,58.30
2019-06-08T23:00:24.902Z,58.20
2019-06-08T23:02:54.430Z,57.70
2019-06-08T23:05:22.475Z,57.80
2019-06-08T23:07:50.278Z,58.00
2019-06-08T23:10:17.989Z,58.30
2019-06-08T23:12:47.216Z,58.90
2019-06-08T23:15:18.357Z,58.90
2019-06-08T23:17:47.936Z,58.60
2019-06-08T23:20:15.589Z,59.10
2019-06-08T23:22:43.242Z,59.60
2019-06-08T23:25:11.379Z,59.10
2019-06-08T23:27:39.260Z,59.20
2019-06-08T23:30:09.993Z,59.40
2019-06-08T23:32:38.557Z,59.20
2019-06-08T23:35:07.913Z,59.60
2019-06-08T23:37:37.384Z,60.10
2019-06-08T23:40:05.555Z,60.10
2019-06-08T23:42:33.863Z,60.10
2019-06-08T23:45:02.299Z,60.40
2019-06-08T23:47:30.069Z,60.60
2019-06-08T23:49:59.369Z,61.10
2019-06-08T23:52:27.369Z,60.70
2019-06-08T23:54:54.925Z,60.70
2019-06-08T23:57:22.593Z,61.10
2019-06-08T23:59:50.394Z,61.00
